sensor_id;sensor_type;location;lat;lon;timestamp;temperature;humidity
63313;DHT22;49442;45.640;13.812;2023-06-10T00:01:29;19.70;99.90
63313;DHT22;49442;45.640;13.812;2023-06-10T00:03:55;19.70;99.90
63313;DHT22;49442;45.640;13.812;2023-06-10T00:06:21;19.70;99.90
63313;DHT22;49442;45.640;13.812;2023-06-10T00:08:50;19.70;99.90
63313;DHT22;49442;45.640;13.812;2023-06-10T00:11:15;19.60;99.90
63313;DHT22;49442;45.640;13.812;2023-06-10T00:13:41;19.60;99.90
63313;DHT22;49442;45.640;13.812;2023-06-10T00:16:07;19.50;99.90
63313;DHT22;49442;45.640;13.812;2023-06-10T00:18:32;19.60;99.90
63313;DHT22;49442;45.640;13.812;2023-06-10T00:20:58;19.50;99.90
63313;DHT22;49442;45.640;13.812;2023-06-10T00:23:30;19.50;99.90
63313;DHT22;49442;45.640;13.812;2023-06-10T00:25:58;19.50;99.90
63313;DHT22;49442;45.640;13.812;2023-06-10T00:28:24;19.40;99.90
63313;DHT22;49442;45.640;13.812;2023-06-10T00:30:50;19.40;99.90
63313;DHT22;49442;45.640;13.812;2023-06-10T00:33:16;19.40;99.90
63313;DHT22;49442;45.640;13.812;2023-06-10T00:35:42;19.40;99.90
63313;DHT22;49442;45.640;13.812;2023-06-10T00:38:07;19.40;99.90
63313;DHT22;49442;45.640;13.812;2023-06-10T00:40:39;19.40;99.90
63313;DHT22;49442;45.640;13.812;2023-06-10T00:43:05;19.30;99.90
63313;DHT22;49442;45.640;13.812;2023-06-10T00:45:31;19.20;99.90
63313;DHT22;49442;45.640;13.812;2023-06-10T00:47:57;19.30;99.90
63313;DHT22;49442;45.640;13.812;2023-06-10T00:50:23;19.20;99.90
63313;DHT22;49442;45.640;13.812;2023-06-10T00:52:49;19.20;99.90
63313;DHT22;49442;45.640;13.812;2023-06-10T00:55:17;19.20;99.90
63313;DHT22;49442;45.640;13.812;2023-06-10T00:57:45;19.30;99.90
63313;DHT22;49442;45.640;13.812;2023-06-10T01:00:12;19.30;99.90
63313;DHT22;49442;45.640;13.812;2023-06-10T01:02:38;19.20;99.90
63313;DHT22;49442;45.640;13.812;2023-06-10T01:05:04;19.20;99.90
63313;DHT22;49442;45.640;13.812;2023-06-10T01:07:38;19.20;99.90
63313;DHT22;49442;45.640;13.812;2023-06-10T01:13:02;19.20;99.90
63313;DHT22;49442;45.640;13.812;2023-06-10T01:15:32;19.20;99.90
63313;DHT22;49442;45.640;13.812;2023-06-10T01:18:06;19.20;99.90
63313;DHT22;49442;45.640;13.812;2023-06-10T01:20:38;19.10;99.90
63313;DHT22;49442;45.640;13.812;2023-06-10T01:23:09;19.00;99.90
63313;DHT22;49442;45.640;13.812;2023-06-10T01:25:42;19.00;99.90
63313;DHT22;49442;45.640;13.812;2023-06-10T01:33:17;19.00;99.90
63313;DHT22;49442;45.640;13.812;2023-06-10T01:35:46;19.10;99.90
63313;DHT22;49442;45.640;13.812;2023-06-10T01:38:14;19.10;99.90
63313;DHT22;49442;45.640;13.812;2023-06-10T01:40:41;19.20;99.90
63313;DHT22;49442;45.640;13.812;2023-06-10T01:43:07;19.20;99.90
63313;DHT22;49442;45.640;13.812;2023-06-10T01:45:33;19.10;99.90
63313;DHT22;49442;45.640;13.812;2023-06-10T01:47:58;19.20;99.90
63313;DHT22;49442;45.640;13.812;2023-06-10T01:50:24;19.10;99.90
63313;DHT22;49442;45.640;13.812;2023-06-10T01:52:50;19.00;99.90
63313;DHT22;49442;45.640;13.812;2023-06-10T01:55:16;19.00;99.90
63313;DHT22;49442;45.640;13.812;2023-06-10T01:57:41;19.10;99.90
63313;DHT22;49442;45.640;13.812;2023-06-10T02:00:07;19.10;99.90
63313;DHT22;49442;45.640;13.812;2023-06-10T02:02:33;19.10;99.90
63313;DHT22;49442;45.640;13.812;2023-06-10T02:04:59;19.20;99.90
63313;DHT22;49442;45.640;13.812;2023-06-10T02:07:25;19.10;99.90
63313;DHT22;49442;45.640;13.812;2023-06-10T02:09:51;19.10;99.90
63313;DHT22;49442;45.640;13.812;2023-06-10T02:12:16;19.10;99.90
63313;DHT22;49442;45.640;13.812;2023-06-10T02:14:42;19.00;99.90
63313;DHT22;49442;45.640;13.812;2023-06-10T02:17:08;19.00;99.90
63313;DHT22;49442;45.640;13.812;2023-06-10T02:19:38;19.00;99.90
63313;DHT22;49442;45.640;13.812;2023-06-10T02:22:08;19.00;99.90
63313;DHT22;49442;45.640;13.812;2023-06-10T02:24:36;18.90;99.90
63313;DHT22;49442;45.640;13.812;2023-06-10T02:27:05;18.90;99.90
63313;DHT22;49442;45.640;13.812;2023-06-10T02:29:33;18.80;99.90
63313;DHT22;49442;45.640;13.812;2023-06-10T02:31:59;18.90;99.90
63313;DHT22;49442;45.640;13.812;2023-06-10T02:34:25;18.90;99.90
63313;DHT22;49442;45.640;13.812;2023-06-10T02:36:50;18.90;99.90
63313;DHT22;49442;45.640;13.812;2023-06-10T02:39:16;18.80;99.90
63313;DHT22;49442;45.640;13.812;2023-06-10T02:41:42;18.80;99.90
63313;DHT22;49442;45.640;13.812;2023-06-10T02:44:08;18.80;99.90
63313;DHT22;49442;45.640;13.812;2023-06-10T02:46:33;18.90;99.90
63313;DHT22;49442;45.640;13.812;2023-06-10T02:48:59;18.90;99.90
63313;DHT22;49442;45.640;13.812;2023-06-10T02:51:25;18.80;99.90
63313;DHT22;49442;45.640;13.812;2023-06-10T02:53:51;18.90;99.90
63313;DHT22;49442;45.640;13.812;2023-06-10T02:56:18;18.90;99.90
63313;DHT22;49442;45.640;13.812;2023-06-10T02:58:44;18.90;99.90
63313;DHT22;49442;45.640;13.812;2023-06-10T03:01:10;18.90;99.90
63313;DHT22;49442;45.640;13.812;2023-06-10T03:03:36;18.90;99.90
63313;DHT22;49442;45.640;13.812;2023-06-10T03:06:06;18.90;99.90
63313;DHT22;49442;45.640;13.812;2023-06-10T03:08:32;18.80;99.90
63313;DHT22;49442;45.640;13.812;2023-06-10T03:10:57;18.80;99.90
63313;DHT22;49442;45.640;13.812;2023-06-10T03:13:23;18.90;99.90
63313;DHT22;49442;45.640;13.812;2023-06-10T03:15:49;18.80;99.90
63313;DHT22;49442;45.640;13.812;2023-06-10T03:18:15;18.70;99.90
63313;DHT22;49442;45.640;13.812;2023-06-10T03:20:41;18.70;99.90
63313;DHT22;49442;45.640;13.812;2023-06-10T03:23:07;18.70;99.90
63313;DHT22;49442;45.640;13.812;2023-06-10T03:25:32;18.80;99.90
63313;DHT22;49442;45.640;13.812;2023-06-10T03:27:58;18.70;99.90
63313;DHT22;49442;45.640;13.812;2023-06-10T03:30:24;18.70;99.90
63313;DHT22;49442;45.640;13.812;2023-06-10T03:32:49;18.70;99.90
63313;DHT22;49442;45.640;13.812;2023-06-10T03:35:15;18.80;99.90
63313;DHT22;49442;45.640;13.812;2023-06-10T03:37:41;18.80;99.90
63313;DHT22;49442;45.640;13.812;2023-06-10T03:40:07;18.80;99.90
63313;DHT22;49442;45.640;13.812;2023-06-10T03:42:34;18.70;99.90
63313;DHT22;49442;45.640;13.812;2023-06-10T03:45:00;18.70;99.90
63313;DHT22;49442;45.640;13.812;2023-06-10T03:47:26;18.80;99.90
63313;DHT22;49442;45.640;13.812;2023-06-10T03:49:52;18.70;99.90
63313;DHT22;49442;45.640;13.812;2023-06-10T03:52:18;18.80;99.90
63313;DHT22;49442;45.640;13.812;2023-06-10T03:54:44;18.70;99.90
63313;DHT22;49442;45.640;13.812;2023-06-10T03:57:11;18.70;99.90
63313;DHT22;49442;45.640;13.812;2023-06-10T03:59:36;18.70;99.90
63313;DHT22;49442;45.640;13.812;2023-06-10T04:02:02;18.80;99.90
63313;DHT22;49442;45.640;13.812;2023-06-10T04:04:30;18.70;99.90
63313;DHT22;49442;45.640;13.812;2023-06-10T04:06:56;18.80;99.90
63313;DHT22;49442;45.640;13.812;2023-06-10T04:09:21;18.80;99.90
63313;DHT22;49442;45.640;13.812;2023-06-10T04:11:47;18.80;99.90
63313;DHT22;49442;45.640;13.812;2023-06-10T04:14:13;18.80;99.90
63313;DHT22;49442;45.640;13.812;2023-06-10T04:16:39;18.80;99.90
63313;DHT22;49442;45.640;13.812;2023-06-10T04:19:04;18.80;99.90
63313;DHT22;49442;45.640;13.812;2023-06-10T04:21:31;18.80;99.90
63313;DHT22;49442;45.640;13.812;2023-06-10T04:23:56;18.80;99.90
63313;DHT22;49442;45.640;13.812;2023-06-10T04:26:22;18.80;99.90
63313;DHT22;49442;45.640;13.812;2023-06-10T04:28:48;18.80;99.90
63313;DHT22;49442;45.640;13.812;2023-06-10T04:31:14;18.80;99.90
63313;DHT22;49442;45.640;13.812;2023-06-10T04:33:39;18.80;99.90
63313;DHT22;49442;45.640;13.812;2023-06-10T04:36:05;19.00;99.90
63313;DHT22;49442;45.640;13.812;2023-06-10T04:38:32;19.00;99.90
63313;DHT22;49442;45.640;13.812;2023-06-10T04:40:58;19.10;99.90
63313;DHT22;49442;45.640;13.812;2023-06-10T04:43:23;19.10;99.90
63313;DHT22;49442;45.640;13.812;2023-06-10T04:45:49;19.10;99.90
63313;DHT22;49442;45.640;13.812;2023-06-10T04:48:15;19.10;99.90
63313;DHT22;49442;45.640;13.812;2023-06-10T04:50:41;19.20;99.90
63313;DHT22;49442;45.640;13.812;2023-06-10T04:53:06;19.30;99.90
63313;DHT22;49442;45.640;13.812;2023-06-10T04:55:32;19.40;99.90
63313;DHT22;49442;45.640;13.812;2023-06-10T04:57:59;19.40;99.90
63313;DHT22;49442;45.640;13.812;2023-06-10T05:00:25;19.30;99.90
63313;DHT22;49442;45.640;13.812;2023-06-10T05:02:50;19.30;99.90
63313;DHT22;49442;45.640;13.812;2023-06-10T05:05:18;19.30;99.90
63313;DHT22;49442;45.640;13.812;2023-06-10T05:07:43;19.40;99.90
63313;DHT22;49442;45.640;13.812;2023-06-10T05:10:10;19.40;99.90
63313;DHT22;49442;45.640;13.812;2023-06-10T05:12:38;19.50;99.90
63313;DHT22;49442;45.640;13.812;2023-06-10T05:15:05;19.50;99.90
63313;DHT22;49442;45.640;13.812;2023-06-10T05:17:31;19.60;99.90
63313;DHT22;49442;45.640;13.812;2023-06-10T05:19:57;19.60;99.90
63313;DHT22;49442;45.640;13.812;2023-06-10T05:22:23;19.70;99.90
63313;DHT22;49442;45.640;13.812;2023-06-10T05:24:51;19.80;99.90
63313;DHT22;49442;45.640;13.812;2023-06-10T05:27:17;19.90;99.90
63313;DHT22;49442;45.640;13.812;2023-06-10T05:29:43;20.00;99.90
63313;DHT22;49442;45.640;13.812;2023-06-10T05:32:09;20.10;99.90
63313;DHT22;49442;45.640;13.812;2023-06-10T05:34:34;20.20;99.90
63313;DHT22;49442;45.640;13.812;2023-06-10T05:37:00;20.20;99.90
63313;DHT22;49442;45.640;13.812;2023-06-10T05:39:26;20.30;99.90
63313;DHT22;49442;45.640;13.812;2023-06-10T05:41:51;20.30;99.90
63313;DHT22;49442;45.640;13.812;2023-06-10T05:44:17;20.40;99.90
63313;DHT22;49442;45.640;13.812;2023-06-10T05:46:43;20.50;99.90
63313;DHT22;49442;45.640;13.812;2023-06-10T05:49:08;20.50;99.90
63313;DHT22;49442;45.640;13.812;2023-06-10T05:51:34;20.60;99.90
63313;DHT22;49442;45.640;13.812;2023-06-10T05:54:00;20.70;99.90
63313;DHT22;49442;45.640;13.812;2023-06-10T05:56:25;20.80;99.90
63313;DHT22;49442;45.640;13.812;2023-06-10T05:58:51;20.80;99.90
63313;DHT22;49442;45.640;13.812;2023-06-10T06:01:17;20.80;99.90
63313;DHT22;49442;45.640;13.812;2023-06-10T06:03:43;21.00;99.90
63313;DHT22;49442;45.640;13.812;2023-06-10T06:06:09;21.00;99.90
63313;DHT22;49442;45.640;13.812;2023-06-10T06:08:34;21.00;99.90
63313;DHT22;49442;45.640;13.812;2023-06-10T06:11:00;21.00;99.90
63313;DHT22;49442;45.640;13.812;2023-06-10T06:13:25;21.10;99.90
63313;DHT22;49442;45.640;13.812;2023-06-10T06:15:51;21.20;99.90
63313;DHT22;49442;45.640;13.812;2023-06-10T06:18:17;21.20;99.90
63313;DHT22;49442;45.640;13.812;2023-06-10T06:20:43;21.30;99.90
63313;DHT22;49442;45.640;13.812;2023-06-10T06:23:09;21.30;99.90
63313;DHT22;49442;45.640;13.812;2023-06-10T06:25:36;21.40;99.90
63313;DHT22;49442;45.640;13.812;2023-06-10T06:28:07;21.60;99.90
63313;DHT22;49442;45.640;13.812;2023-06-10T06:30:34;21.60;99.90
63313;DHT22;49442;45.640;13.812;2023-06-10T06:33:01;21.80;99.90
63313;DHT22;49442;45.640;13.812;2023-06-10T06:35:26;21.90;99.90
63313;DHT22;49442;45.640;13.812;2023-06-10T06:37:52;21.90;99.90
63313;DHT22;49442;45.640;13.812;2023-06-10T06:40:18;21.90;99.90
63313;DHT22;49442;45.640;13.812;2023-06-10T06:42:44;22.00;99.90
63313;DHT22;49442;45.640;13.812;2023-06-10T06:45:10;21.90;99.90
63313;DHT22;49442;45.640;13.812;2023-06-10T06:47:38;22.00;99.90
63313;DHT22;49442;45.640;13.812;2023-06-10T06:50:04;22.00;99.90
63313;DHT22;49442;45.640;13.812;2023-06-10T06:52:30;22.00;99.90
63313;DHT22;49442;45.640;13.812;2023-06-10T06:54:56;22.00;99.90
63313;DHT22;49442;45.640;13.812;2023-06-10T06:57:21;22.00;99.90
63313;DHT22;49442;45.640;13.812;2023-06-10T06:59:48;22.00;99.90
63313;DHT22;49442;45.640;13.812;2023-06-10T07:02:14;22.00;99.90
63313;DHT22;49442;45.640;13.812;2023-06-10T07:04:40;22.00;99.90
63313;DHT22;49442;45.640;13.812;2023-06-10T07:07:07;22.10;99.90
63313;DHT22;49442;45.640;13.812;2023-06-10T07:09:34;22.20;99.90
63313;DHT22;49442;45.640;13.812;2023-06-10T07:11:59;22.30;99.90
63313;DHT22;49442;45.640;13.812;2023-06-10T07:14:26;22.30;99.90
63313;DHT22;49442;45.640;13.812;2023-06-10T07:16:52;22.50;99.90
63313;DHT22;49442;45.640;13.812;2023-06-10T07:19:17;22.50;99.90
63313;DHT22;49442;45.640;13.812;2023-06-10T07:21:43;22.60;99.90
63313;DHT22;49442;45.640;13.812;2023-06-10T07:24:09;22.70;99.90
63313;DHT22;49442;45.640;13.812;2023-06-10T07:26:34;22.80;99.90
63313;DHT22;49442;45.640;13.812;2023-06-10T07:29:00;22.80;99.90
63313;DHT22;49442;45.640;13.812;2023-06-10T07:31:26;22.70;99.90
63313;DHT22;49442;45.640;13.812;2023-06-10T07:33:51;22.70;99.90
63313;DHT22;49442;45.640;13.812;2023-06-10T07:36:17;22.70;99.90
63313;DHT22;49442;45.640;13.812;2023-06-10T07:38:43;22.70;99.90
63313;DHT22;49442;45.640;13.812;2023-06-10T07:41:09;22.70;99.90
63313;DHT22;49442;45.640;13.812;2023-06-10T07:43:36;22.60;99.90
63313;DHT22;49442;45.640;13.812;2023-06-10T07:46:02;22.70;99.90
63313;DHT22;49442;45.640;13.812;2023-06-10T07:48:27;22.60;99.90
63313;DHT22;49442;45.640;13.812;2023-06-10T07:50:53;22.70;99.90
63313;DHT22;49442;45.640;13.812;2023-06-10T07:53:19;22.70;99.90
63313;DHT22;49442;45.640;13.812;2023-06-10T07:55:45;22.80;99.90
63313;DHT22;49442;45.640;13.812;2023-06-10T07:58:11;23.00;99.90
63313;DHT22;49442;45.640;13.812;2023-06-10T08:00:36;23.00;99.90
63313;DHT22;49442;45.640;13.812;2023-06-10T08:03:02;23.00;99.90
63313;DHT22;49442;45.640;13.812;2023-06-10T08:05:28;23.10;99.90
63313;DHT22;49442;45.640;13.812;2023-06-10T08:07:55;23.10;99.90
63313;DHT22;49442;45.640;13.812;2023-06-10T08:10:21;23.20;99.90
63313;DHT22;49442;45.640;13.812;2023-06-10T08:12:46;23.20;99.90
63313;DHT22;49442;45.640;13.812;2023-06-10T08:15:12;23.20;99.90
63313;DHT22;49442;45.640;13.812;2023-06-10T08:17:38;23.10;99.90
63313;DHT22;49442;45.640;13.812;2023-06-10T08:20:05;23.10;99.90
63313;DHT22;49442;45.640;13.812;2023-06-10T08:22:31;23.20;99.90
63313;DHT22;49442;45.640;13.812;2023-06-10T08:24:57;23.00;99.90
63313;DHT22;49442;45.640;13.812;2023-06-10T08:27:23;22.90;99.90
63313;DHT22;49442;45.640;13.812;2023-06-10T08:29:49;23.10;99.90
63313;DHT22;49442;45.640;13.812;2023-06-10T08:32:14;23.10;99.90
63313;DHT22;49442;45.640;13.812;2023-06-10T08:34:40;23.10;99.90
63313;DHT22;49442;45.640;13.812;2023-06-10T08:37:06;23.30;99.90
63313;DHT22;49442;45.640;13.812;2023-06-10T08:39:32;23.40;99.90
63313;DHT22;49442;45.640;13.812;2023-06-10T08:42:06;23.50;99.90
63313;DHT22;49442;45.640;13.812;2023-06-10T08:44:35;23.60;99.90
63313;DHT22;49442;45.640;13.812;2023-06-10T08:47:08;23.60;99.90
63313;DHT22;49442;45.640;13.812;2023-06-10T08:49:38;23.70;99.90
63313;DHT22;49442;45.640;13.812;2023-06-10T08:52:07;23.60;99.90
63313;DHT22;49442;45.640;13.812;2023-06-10T08:54:34;23.60;99.90
63313;DHT22;49442;45.640;13.812;2023-06-10T08:57:05;23.60;99.90
63313;DHT22;49442;45.640;13.812;2023-06-10T08:59:33;23.60;99.90
63313;DHT22;49442;45.640;13.812;2023-06-10T09:02:00;23.60;99.90
63313;DHT22;49442;45.640;13.812;2023-06-10T09:04:26;23.70;99.90
63313;DHT22;49442;45.640;13.812;2023-06-10T09:06:53;23.70;99.90
63313;DHT22;49442;45.640;13.812;2023-06-10T09:09:19;23.70;99.90
63313;DHT22;49442;45.640;13.812;2023-06-10T09:11:48;23.70;99.90
63313;DHT22;49442;45.640;13.812;2023-06-10T09:14:14;23.70;99.90
63313;DHT22;49442;45.640;13.812;2023-06-10T09:16:40;23.70;99.90
63313;DHT22;49442;45.640;13.812;2023-06-10T09:19:07;23.90;99.90
63313;DHT22;49442;45.640;13.812;2023-06-10T09:21:34;24.10;99.90
63313;DHT22;49442;45.640;13.812;2023-06-10T09:23:59;24.20;99.90
63313;DHT22;49442;45.640;13.812;2023-06-10T09:26:29;24.20;99.90
63313;DHT22;49442;45.640;13.812;2023-06-10T09:29:04;24.20;99.90
63313;DHT22;49442;45.640;13.812;2023-06-10T09:31:31;24.30;99.90
63313;DHT22;49442;45.640;13.812;2023-06-10T09:34:14;24.40;99.90
63313;DHT22;49442;45.640;13.812;2023-06-10T09:36:40;24.40;99.90
63313;DHT22;49442;45.640;13.812;2023-06-10T09:39:15;24.10;99.90
63313;DHT22;49442;45.640;13.812;2023-06-10T09:41:45;24.10;99.90
63313;DHT22;49442;45.640;13.812;2023-06-10T09:44:15;24.00;99.90
63313;DHT22;49442;45.640;13.812;2023-06-10T09:46:41;24.10;99.90
63313;DHT22;49442;45.640;13.812;2023-06-10T09:49:07;24.20;99.90
63313;DHT22;49442;45.640;13.812;2023-06-10T09:51:33;24.10;99.90
63313;DHT22;49442;45.640;13.812;2023-06-10T09:54:02;24.00;99.90
63313;DHT22;49442;45.640;13.812;2023-06-10T09:56:35;24.00;99.90
63313;DHT22;49442;45.640;13.812;2023-06-10T09:59:01;23.90;99.90
63313;DHT22;49442;45.640;13.812;2023-06-10T10:01:28;24.00;99.90
63313;DHT22;49442;45.640;13.812;2023-06-10T10:03:53;23.80;99.90
63313;DHT22;49442;45.640;13.812;2023-06-10T10:06:20;23.90;99.90
63313;DHT22;49442;45.640;13.812;2023-06-10T10:08:48;24.00;99.90
63313;DHT22;49442;45.640;13.812;2023-06-10T10:11:16;24.20;99.90
63313;DHT22;49442;45.640;13.812;2023-06-10T10:13:45;24.20;99.90
63313;DHT22;49442;45.640;13.812;2023-06-10T10:16:16;24.40;99.90
63313;DHT22;49442;45.640;13.812;2023-06-10T10:18:52;24.40;99.90
63313;DHT22;49442;45.640;13.812;2023-06-10T10:21:23;24.50;99.90
63313;DHT22;49442;45.640;13.812;2023-06-10T10:24:03;24.50;99.90
63313;DHT22;49442;45.640;13.812;2023-06-10T10:26:31;24.40;99.90
63313;DHT22;49442;45.640;13.812;2023-06-10T10:31:24;24.50;99.90
63313;DHT22;49442;45.640;13.812;2023-06-10T10:33:54;24.50;99.90
63313;DHT22;49442;45.640;13.812;2023-06-10T10:36:21;24.60;99.90
63313;DHT22;49442;45.640;13.812;2023-06-10T10:38:48;24.70;99.90
63313;DHT22;49442;45.640;13.812;2023-06-10T10:41:15;24.70;99.90
63313;DHT22;49442;45.640;13.812;2023-06-10T10:43:43;24.80;99.90
63313;DHT22;49442;45.640;13.812;2023-06-10T10:46:12;24.70;99.90
63313;DHT22;49442;45.640;13.812;2023-06-10T10:48:39;24.60;99.90
63313;DHT22;49442;45.640;13.812;2023-06-10T10:51:09;24.70;99.90
63313;DHT22;49442;45.640;13.812;2023-06-10T10:53:36;24.80;99.90
63313;DHT22;49442;45.640;13.812;2023-06-10T10:56:06;24.90;99.90
63313;DHT22;49442;45.640;13.812;2023-06-10T10:58:33;24.70;99.90
63313;DHT22;49442;45.640;13.812;2023-06-10T11:00:59;24.70;99.90
63313;DHT22;49442;45.640;13.812;2023-06-10T11:03:29;24.60;99.90
63313;DHT22;49442;45.640;13.812;2023-06-10T11:05:58;24.70;99.90
63313;DHT22;49442;45.640;13.812;2023-06-10T11:10:58;24.90;99.90
63313;DHT22;49442;45.640;13.812;2023-06-10T11:13:25;24.90;99.90
63313;DHT22;49442;45.640;13.812;2023-06-10T11:15:52;24.90;99.90
63313;DHT22;49442;45.640;13.812;2023-06-10T11:18:38;24.80;99.90
63313;DHT22;49442;45.640;13.812;2023-06-10T11:21:05;24.70;99.90
63313;DHT22;49442;45.640;13.812;2023-06-10T11:23:40;24.80;99.90
63313;DHT22;49442;45.640;13.812;2023-06-10T11:26:17;24.40;99.90
63313;DHT22;49442;45.640;13.812;2023-06-10T11:31:22;24.60;99.90
63313;DHT22;49442;45.640;13.812;2023-06-10T11:33:53;24.80;99.90
63313;DHT22;49442;45.640;13.812;2023-06-10T11:36:19;24.80;99.90
63313;DHT22;49442;45.640;13.812;2023-06-10T11:38:45;24.90;99.90
63313;DHT22;49442;45.640;13.812;2023-06-10T11:41:17;25.00;99.90
63313;DHT22;49442;45.640;13.812;2023-06-10T11:43:44;25.10;99.90
63313;DHT22;49442;45.640;13.812;2023-06-10T11:46:11;25.20;99.90
63313;DHT22;49442;45.640;13.812;2023-06-10T11:48:36;25.30;99.90
63313;DHT22;49442;45.640;13.812;2023-06-10T11:51:06;25.20;99.90
63313;DHT22;49442;45.640;13.812;2023-06-10T11:53:32;24.80;99.90
63313;DHT22;49442;45.640;13.812;2023-06-10T11:55:58;24.70;99.90
63313;DHT22;49442;45.640;13.812;2023-06-10T11:58:24;24.60;99.90
63313;DHT22;49442;45.640;13.812;2023-06-10T12:00:52;24.60;99.90
63313;DHT22;49442;45.640;13.812;2023-06-10T12:03:19;24.60;99.90
63313;DHT22;49442;45.640;13.812;2023-06-10T12:06:03;24.60;99.90
63313;DHT22;49442;45.640;13.812;2023-06-10T12:08:30;24.60;99.90
63313;DHT22;49442;45.640;13.812;2023-06-10T12:10:56;24.50;99.90
63313;DHT22;49442;45.640;13.812;2023-06-10T12:13:23;24.50;99.90
63313;DHT22;49442;45.640;13.812;2023-06-10T12:15:49;24.50;99.90
63313;DHT22;49442;45.640;13.812;2023-06-10T12:18:23;24.60;99.90
63313;DHT22;49442;45.640;13.812;2023-06-10T12:20:50;24.60;99.90
63313;DHT22;49442;45.640;13.812;2023-06-10T12:23:17;24.70;99.90
63313;DHT22;49442;45.640;13.812;2023-06-10T12:25:55;24.80;99.90
63313;DHT22;49442;45.640;13.812;2023-06-10T12:28:24;24.60;99.90
63313;DHT22;49442;45.640;13.812;2023-06-10T12:30:50;24.40;99.90
63313;DHT22;49442;45.640;13.812;2023-06-10T12:33:20;24.10;99.90
63313;DHT22;49442;45.640;13.812;2023-06-10T12:35:52;23.60;99.90
63313;DHT22;49442;45.640;13.812;2023-06-10T12:38:23;23.20;99.90
63313;DHT22;49442;45.640;13.812;2023-06-10T12:41:01;22.90;99.90
63313;DHT22;49442;45.640;13.812;2023-06-10T12:43:28;22.60;99.90
63313;DHT22;49442;45.640;13.812;2023-06-10T12:45:53;22.40;99.90
63313;DHT22;49442;45.640;13.812;2023-06-10T12:50:53;22.10;99.90
63313;DHT22;49442;45.640;13.812;2023-06-10T12:53:20;21.90;99.90
63313;DHT22;49442;45.640;13.812;2023-06-10T12:55:46;21.80;99.90
63313;DHT22;49442;45.640;13.812;2023-06-10T12:58:13;21.60;99.90
63313;DHT22;49442;45.640;13.812;2023-06-10T13:00:39;21.60;99.90
63313;DHT22;49442;45.640;13.812;2023-06-10T13:03:05;21.60;99.90
63313;DHT22;49442;45.640;13.812;2023-06-10T13:05:32;21.50;99.90
63313;DHT22;49442;45.640;13.812;2023-06-10T13:07:59;21.30;99.90
63313;DHT22;49442;45.640;13.812;2023-06-10T13:10:25;21.00;99.90
63313;DHT22;49442;45.640;13.812;2023-06-10T13:12:51;20.90;99.90
63313;DHT22;49442;45.640;13.812;2023-06-10T13:15:17;20.70;99.90
63313;DHT22;49442;45.640;13.812;2023-06-10T13:17:44;20.60;99.90
63313;DHT22;49442;45.640;13.812;2023-06-10T13:20:11;20.60;99.90
63313;DHT22;49442;45.640;13.812;2023-06-10T13:22:36;20.60;99.90
63313;DHT22;49442;45.640;13.812;2023-06-10T13:25:03;20.50;99.90
63313;DHT22;49442;45.640;13.812;2023-06-10T13:27:29;20.60;99.90
63313;DHT22;49442;45.640;13.812;2023-06-10T13:29:55;20.70;99.90
63313;DHT22;49442;45.640;13.812;2023-06-10T13:32:20;20.60;99.90
63313;DHT22;49442;45.640;13.812;2023-06-10T13:34:47;20.70;99.90
63313;DHT22;49442;45.640;13.812;2023-06-10T13:37:12;20.60;99.90
63313;DHT22;49442;45.640;13.812;2023-06-10T13:39:38;20.70;99.90
63313;DHT22;49442;45.640;13.812;2023-06-10T13:42:05;20.60;99.90
63313;DHT22;49442;45.640;13.812;2023-06-10T13:44:33;20.60;99.90
63313;DHT22;49442;45.640;13.812;2023-06-10T13:47:02;20.60;99.90
63313;DHT22;49442;45.640;13.812;2023-06-10T13:49:28;20.60;99.90
63313;DHT22;49442;45.640;13.812;2023-06-10T13:51:53;20.50;99.90
63313;DHT22;49442;45.640;13.812;2023-06-10T13:54:19;20.60;99.90
63313;DHT22;49442;45.640;13.812;2023-06-10T13:56:44;20.60;99.90
63313;DHT22;49442;45.640;13.812;2023-06-10T13:59:11;20.60;99.90
63313;DHT22;49442;45.640;13.812;2023-06-10T14:01:38;20.70;99.90
63313;DHT22;49442;45.640;13.812;2023-06-10T14:04:04;20.80;99.90
63313;DHT22;49442;45.640;13.812;2023-06-10T14:06:30;20.90;99.90
63313;DHT22;49442;45.640;13.812;2023-06-10T14:08:56;21.00;99.90
63313;DHT22;49442;45.640;13.812;2023-06-10T14:11:21;21.00;99.90
63313;DHT22;49442;45.640;13.812;2023-06-10T14:13:47;21.10;99.90
63313;DHT22;49442;45.640;13.812;2023-06-10T14:16:13;21.20;99.90
63313;DHT22;49442;45.640;13.812;2023-06-10T14:18:38;21.30;99.90
63313;DHT22;49442;45.640;13.812;2023-06-10T14:21:05;21.30;99.90
63313;DHT22;49442;45.640;13.812;2023-06-10T14:23:30;21.40;99.90
63313;DHT22;49442;45.640;13.812;2023-06-10T14:25:56;21.50;99.90
63313;DHT22;49442;45.640;13.812;2023-06-10T14:28:21;21.60;99.90
63313;DHT22;49442;45.640;13.812;2023-06-10T14:30:49;21.70;99.90
63313;DHT22;49442;45.640;13.812;2023-06-10T14:33:15;22.00;99.90
63313;DHT22;49442;45.640;13.812;2023-06-10T14:35:41;22.10;99.90
63313;DHT22;49442;45.640;13.812;2023-06-10T14:38:08;22.10;99.90
63313;DHT22;49442;45.640;13.812;2023-06-10T14:40:34;22.10;99.90
63313;DHT22;49442;45.640;13.812;2023-06-10T14:42:59;22.20;99.90
63313;DHT22;49442;45.640;13.812;2023-06-10T14:45:26;22.20;99.90
63313;DHT22;49442;45.640;13.812;2023-06-10T14:47:52;22.30;99.90
63313;DHT22;49442;45.640;13.812;2023-06-10T14:50:18;22.00;99.90
63313;DHT22;49442;45.640;13.812;2023-06-10T14:52:43;22.20;99.90
63313;DHT22;49442;45.640;13.812;2023-06-10T14:55:09;22.10;99.90
63313;DHT22;49442;45.640;13.812;2023-06-10T14:57:35;22.00;99.90
63313;DHT22;49442;45.640;13.812;2023-06-10T15:00:00;21.80;99.90
63313;DHT22;49442;45.640;13.812;2023-06-10T15:02:26;21.80;99.90
63313;DHT22;49442;45.640;13.812;2023-06-10T15:04:52;21.70;99.90
63313;DHT22;49442;45.640;13.812;2023-06-10T15:07:17;21.70;99.90
63313;DHT22;49442;45.640;13.812;2023-06-10T15:09:43;21.70;99.90
63313;DHT22;49442;45.640;13.812;2023-06-10T15:12:10;21.70;99.90
63313;DHT22;49442;45.640;13.812;2023-06-10T15:14:36;21.70;99.90
63313;DHT22;49442;45.640;13.812;2023-06-10T15:17:02;21.80;99.90
63313;DHT22;49442;45.640;13.812;2023-06-10T15:19:28;21.90;99.90
63313;DHT22;49442;45.640;13.812;2023-06-10T15:21:54;22.10;99.90
63313;DHT22;49442;45.640;13.812;2023-06-10T15:24:19;22.20;99.90
63313;DHT22;49442;45.640;13.812;2023-06-10T15:26:45;22.40;99.90
63313;DHT22;49442;45.640;13.812;2023-06-10T15:29:11;22.50;99.90
63313;DHT22;49442;45.640;13.812;2023-06-10T15:31:37;22.50;99.90